sensor_id;sensor_type;location;lat;lon;timestamp;temperature;humidity
19174;DHT22;9719;49.322;8.536;2023-06-14T00:01:19;22.20;55.20
19174;DHT22;9719;49.322;8.536;2023-06-14T00:06:22;22.20;55.20
19174;DHT22;9719;49.322;8.536;2023-06-14T00:11:26;22.20;55.10
19174;DHT22;9719;49.322;8.536;2023-06-14T00:16:27;22.20;55.10
19174;DHT22;9719;49.322;8.536;2023-06-14T00:21:29;22.20;55.20
19174;DHT22;9719;49.322;8.536;2023-06-14T00:26:32;22.20;55.20
19174;DHT22;9719;49.322;8.536;2023-06-14T00:31:34;22.20;55.20
19174;DHT22;9719;49.322;8.536;2023-06-14T00:36:36;22.20;55.40
19174;DHT22;9719;49.322;8.536;2023-06-14T00:41:39;22.20;55.30
19174;DHT22;9719;49.322;8.536;2023-06-14T00:46:41;22.20;55.30
19174;DHT22;9719;49.322;8.536;2023-06-14T00:51:43;22.10;55.30
19174;DHT22;9719;49.322;8.536;2023-06-14T00:56:47;22.10;55.40
19174;DHT22;9719;49.322;8.536;2023-06-14T01:01:48;22.10;55.50
19174;DHT22;9719;49.322;8.536;2023-06-14T01:06:57;22.10;55.50
19174;DHT22;9719;49.322;8.536;2023-06-14T01:12:11;22.10;55.50
19174;DHT22;9719;49.322;8.536;2023-06-14T01:17:15;22.10;55.50
19174;DHT22;9719;49.322;8.536;2023-06-14T01:22:18;22.10;55.50
19174;DHT22;9719;49.322;8.536;2023-06-14T01:27:22;22.10;55.60
19174;DHT22;9719;49.322;8.536;2023-06-14T01:32:25;22.10;55.90
19174;DHT22;9719;49.322;8.536;2023-06-14T01:37:28;22.00;55.80
19174;DHT22;9719;49.322;8.536;2023-06-14T01:42:32;22.00;56.00
19174;DHT22;9719;49.322;8.536;2023-06-14T01:47:36;21.90;56.30
19174;DHT22;9719;49.322;8.536;2023-06-14T01:52:37;21.70;57.20
19174;DHT22;9719;49.322;8.536;2023-06-14T01:57:40;21.50;58.00
19174;DHT22;9719;49.322;8.536;2023-06-14T02:02:42;21.20;59.20
19174;DHT22;9719;49.322;8.536;2023-06-14T02:07:44;20.90;59.60
19174;DHT22;9719;49.322;8.536;2023-06-14T02:12:47;20.70;60.50
19174;DHT22;9719;49.322;8.536;2023-06-14T02:17:49;20.40;61.60
19174;DHT22;9719;49.322;8.536;2023-06-14T02:22:51;20.20;62.60
19174;DHT22;9719;49.322;8.536;2023-06-14T02:27:54;19.90;63.60
19174;DHT22;9719;49.322;8.536;2023-06-14T02:32:56;19.70;64.30
19174;DHT22;9719;49.322;8.536;2023-06-14T02:37:59;19.50;65.40
19174;DHT22;9719;49.322;8.536;2023-06-14T02:43:02;19.40;65.90
19174;DHT22;9719;49.322;8.536;2023-06-14T02:48:04;19.20;66.80
19174;DHT22;9719;49.322;8.536;2023-06-14T02:53:06;19.00;67.30
19174;DHT22;9719;49.322;8.536;2023-06-14T02:58:09;18.90;68.10
19174;DHT22;9719;49.322;8.536;2023-06-14T03:03:11;18.80;68.50
19174;DHT22;9719;49.322;8.536;2023-06-14T03:08:14;18.70;68.90
19174;DHT22;9719;49.322;8.536;2023-06-14T03:13:18;18.70;69.40
19174;DHT22;9719;49.322;8.536;2023-06-14T03:18:21;18.60;69.90
19174;DHT22;9719;49.322;8.536;2023-06-14T03:23:23;18.50;70.30
19174;DHT22;9719;49.322;8.536;2023-06-14T03:28:27;18.50;70.90
19174;DHT22;9719;49.322;8.536;2023-06-14T03:33:28;18.50;71.50
19174;DHT22;9719;49.322;8.536;2023-06-14T03:38:30;18.40;72.00
19174;DHT22;9719;49.322;8.536;2023-06-14T03:43:33;18.30;72.20
19174;DHT22;9719;49.322;8.536;2023-06-14T03:48:35;18.30;72.90
19174;DHT22;9719;49.322;8.536;2023-06-14T03:53:37;18.20;73.40
19174;DHT22;9719;49.322;8.536;2023-06-14T03:58:39;18.20;73.70
19174;DHT22;9719;49.322;8.536;2023-06-14T04:03:41;18.20;74.10
19174;DHT22;9719;49.322;8.536;2023-06-14T04:08:43;18.10;74.50
19174;DHT22;9719;49.322;8.536;2023-06-14T04:13:47;18.10;75.10
19174;DHT22;9719;49.322;8.536;2023-06-14T04:18:48;18.20;75.50
19174;DHT22;9719;49.322;8.536;2023-06-14T04:23:52;18.20;76.20
19174;DHT22;9719;49.322;8.536;2023-06-14T04:28:56;18.30;76.70
19174;DHT22;9719;49.322;8.536;2023-06-14T04:34:02;18.30;76.60
19174;DHT22;9719;49.322;8.536;2023-06-14T04:39:06;18.40;76.50
19174;DHT22;9719;49.322;8.536;2023-06-14T04:44:10;18.40;76.80
19174;DHT22;9719;49.322;8.536;2023-06-14T04:49:13;18.40;77.10
19174;DHT22;9719;49.322;8.536;2023-06-14T04:54:15;18.50;77.30
19174;DHT22;9719;49.322;8.536;2023-06-14T04:59:20;18.60;77.60
19174;DHT22;9719;49.322;8.536;2023-06-14T05:04:23;18.80;77.90
19174;DHT22;9719;49.322;8.536;2023-06-14T05:09:26;19.00;77.80
19174;DHT22;9719;49.322;8.536;2023-06-14T05:14:29;19.20;77.90
19174;DHT22;9719;49.322;8.536;2023-06-14T05:19:31;19.40;77.90
19174;DHT22;9719;49.322;8.536;2023-06-14T05:24:32;19.70;77.40
19174;DHT22;9719;49.322;8.536;2023-06-14T05:29:35;20.00;77.10
19174;DHT22;9719;49.322;8.536;2023-06-14T05:34:37;20.20;77.30
19174;DHT22;9719;49.322;8.536;2023-06-14T05:39:39;20.60;76.60
19174;DHT22;9719;49.322;8.536;2023-06-14T05:44:42;20.90;76.20
19174;DHT22;9719;49.322;8.536;2023-06-14T05:49:43;21.30;76.10
19174;DHT22;9719;49.322;8.536;2023-06-14T05:54:46;21.60;75.30
19174;DHT22;9719;49.322;8.536;2023-06-14T05:59:49;21.90;74.70
19174;DHT22;9719;49.322;8.536;2023-06-14T06:04:50;22.20;74.00
19174;DHT22;9719;49.322;8.536;2023-06-14T06:09:52;22.50;73.60
19174;DHT22;9719;49.322;8.536;2023-06-14T06:14:55;22.70;72.70
19174;DHT22;9719;49.322;8.536;2023-06-14T06:19:57;22.80;71.90
19174;DHT22;9719;49.322;8.536;2023-06-14T06:24:58;23.00;71.20
19174;DHT22;9719;49.322;8.536;2023-06-14T06:30:01;23.20;69.90
19174;DHT22;9719;49.322;8.536;2023-06-14T06:35:04;23.40;68.60
19174;DHT22;9719;49.322;8.536;2023-06-14T06:40:07;23.60;68.00
19174;DHT22;9719;49.322;8.536;2023-06-14T06:45:11;23.80;67.40
19174;DHT22;9719;49.322;8.536;2023-06-14T06:50:12;23.90;66.60
19174;DHT22;9719;49.322;8.536;2023-06-14T06:55:14;24.00;66.20
19174;DHT22;9719;49.322;8.536;2023-06-14T07:00:18;24.10;65.90
19174;DHT22;9719;49.322;8.536;2023-06-14T07:05:19;24.10;65.10
19174;DHT22;9719;49.322;8.536;2023-06-14T07:10:21;24.20;64.70
19174;DHT22;9719;49.322;8.536;2023-06-14T07:15:26;24.30;63.70
19174;DHT22;9719;49.322;8.536;2023-06-14T07:20:27;24.50;63.40
19174;DHT22;9719;49.322;8.536;2023-06-14T07:25:29;24.60;63.00
19174;DHT22;9719;49.322;8.536;2023-06-14T07:30:32;24.70;63.30
19174;DHT22;9719;49.322;8.536;2023-06-14T07:35:34;24.80;62.30
19174;DHT22;9719;49.322;8.536;2023-06-14T07:40:35;24.80;62.60
19174;DHT22;9719;49.322;8.536;2023-06-14T07:45:38;24.90;62.30
19174;DHT22;9719;49.322;8.536;2023-06-14T07:50:40;25.20;61.30
19174;DHT22;9719;49.322;8.536;2023-06-14T07:55:42;25.30;60.70
19174;DHT22;9719;49.322;8.536;2023-06-14T08:00:45;25.60;61.20
19174;DHT22;9719;49.322;8.536;2023-06-14T08:05:47;25.50;59.80
19174;DHT22;9719;49.322;8.536;2023-06-14T08:10:49;25.50;59.50
19174;DHT22;9719;49.322;8.536;2023-06-14T08:15:52;25.70;59.70
19174;DHT22;9719;49.322;8.536;2023-06-14T08:20:54;25.90;59.80
19174;DHT22;9719;49.322;8.536;2023-06-14T08:25:57;26.20;59.00
19174;DHT22;9719;49.322;8.536;2023-06-14T08:31:03;26.50;58.60
19174;DHT22;9719;49.322;8.536;2023-06-14T08:36:05;26.40;57.70
19174;DHT22;9719;49.322;8.536;2023-06-14T08:41:07;26.50;58.40
19174;DHT22;9719;49.322;8.536;2023-06-14T08:46:10;26.80;57.20
19174;DHT22;9719;49.322;8.536;2023-06-14T08:51:18;27.10;56.20
19174;DHT22;9719;49.322;8.536;2023-06-14T08:56:22;27.40;54.90
19174;DHT22;9719;49.322;8.536;2023-06-14T09:01:27;27.70;54.50
19174;DHT22;9719;49.322;8.536;2023-06-14T09:06:29;28.10;54.40
19174;DHT22;9719;49.322;8.536;2023-06-14T09:11:31;28.40;53.40
19174;DHT22;9719;49.322;8.536;2023-06-14T09:16:34;28.80;53.00
19174;DHT22;9719;49.322;8.536;2023-06-14T09:21:35;29.30;51.90
19174;DHT22;9719;49.322;8.536;2023-06-14T09:26:38;29.30;51.50
19174;DHT22;9719;49.322;8.536;2023-06-14T09:31:42;29.40;51.00
19174;DHT22;9719;49.322;8.536;2023-06-14T09:36:44;29.40;50.40
19174;DHT22;9719;49.322;8.536;2023-06-14T09:41:46;29.50;49.80
19174;DHT22;9719;49.322;8.536;2023-06-14T09:46:49;29.20;49.30
19174;DHT22;9719;49.322;8.536;2023-06-14T09:51:53;28.70;50.30
19174;DHT22;9719;49.322;8.536;2023-06-14T09:56:56;28.30;49.70
19174;DHT22;9719;49.322;8.536;2023-06-14T10:02:00;28.10;50.00
19174;DHT22;9719;49.322;8.536;2023-06-14T10:07:07;28.40;49.70
19174;DHT22;9719;49.322;8.536;2023-06-14T10:12:09;28.80;49.50
19174;DHT22;9719;49.322;8.536;2023-06-14T10:17:20;29.20;49.60
19174;DHT22;9719;49.322;8.536;2023-06-14T10:22:29;29.60;47.70
19174;DHT22;9719;49.322;8.536;2023-06-14T10:27:32;29.50;47.00
19174;DHT22;9719;49.322;8.536;2023-06-14T10:32:34;29.10;46.90
19174;DHT22;9719;49.322;8.536;2023-06-14T10:37:36;28.70;46.40
19174;DHT22;9719;49.322;8.536;2023-06-14T10:42:38;28.90;47.10
19174;DHT22;9719;49.322;8.536;2023-06-14T10:47:57;29.20;46.60
19174;DHT22;9719;49.322;8.536;2023-06-14T10:52:59;28.90;45.90
19174;DHT22;9719;49.322;8.536;2023-06-14T10:58:00;28.40;45.90
19174;DHT22;9719;49.322;8.536;2023-06-14T11:03:50;28.00;46.90
19174;DHT22;9719;49.322;8.536;2023-06-14T11:09:14;28.70;48.20
19174;DHT22;9719;49.322;8.536;2023-06-14T11:14:21;29.30;47.00
19174;DHT22;9719;49.322;8.536;2023-06-14T11:19:24;29.10;46.60
19174;DHT22;9719;49.322;8.536;2023-06-14T11:24:29;29.10;46.60
19174;DHT22;9719;49.322;8.536;2023-06-14T11:29:30;28.80;46.70
19174;DHT22;9719;49.322;8.536;2023-06-14T11:34:35;28.40;46.80
19174;DHT22;9719;49.322;8.536;2023-06-14T11:39:36;28.00;47.50
19174;DHT22;9719;49.322;8.536;2023-06-14T11:44:38;27.70;47.90
19174;DHT22;9719;49.322;8.536;2023-06-14T11:49:41;27.90;48.00
19174;DHT22;9719;49.322;8.536;2023-06-14T11:54:43;28.40;48.00
19174;DHT22;9719;49.322;8.536;2023-06-14T11:59:46;29.10;47.80
19174;DHT22;9719;49.322;8.536;2023-06-14T12:04:49;29.80;47.10
19174;DHT22;9719;49.322;8.536;2023-06-14T12:10:07;29.50;46.70
19174;DHT22;9719;49.322;8.536;2023-06-14T12:15:10;29.20;45.90
19174;DHT22;9719;49.322;8.536;2023-06-14T12:20:15;29.10;46.50
19174;DHT22;9719;49.322;8.536;2023-06-14T12:25:25;29.30;46.40
19174;DHT22;9719;49.322;8.536;2023-06-14T12:30:28;30.00;46.40
19174;DHT22;9719;49.322;8.536;2023-06-14T12:35:31;31.00;46.30
19174;DHT22;9719;49.322;8.536;2023-06-14T12:40:32;31.80;45.60
19174;DHT22;9719;49.322;8.536;2023-06-14T12:45:34;31.50;44.40
19174;DHT22;9719;49.322;8.536;2023-06-14T12:50:37;31.20;44.30
19174;DHT22;9719;49.322;8.536;2023-06-14T12:55:39;31.00;44.30
19174;DHT22;9719;49.322;8.536;2023-06-14T13:00:40;30.80;44.80
19174;DHT22;9719;49.322;8.536;2023-06-14T13:05:43;30.60;45.00
19174;DHT22;9719;49.322;8.536;2023-06-14T13:10:45;30.40;44.70
19174;DHT22;9719;49.322;8.536;2023-06-14T13:15:47;30.30;44.40
19174;DHT22;9719;49.322;8.536;2023-06-14T13:20:51;30.00;44.70
19174;DHT22;9719;49.322;8.536;2023-06-14T13:25:53;29.80;44.60
19174;DHT22;9719;49.322;8.536;2023-06-14T13:30:54;29.90;44.90
19174;DHT22;9719;49.322;8.536;2023-06-14T13:35:58;30.10;44.90
19174;DHT22;9719;49.322;8.536;2023-06-14T13:41:00;29.80;44.80
19174;DHT22;9719;49.322;8.536;2023-06-14T13:46:01;29.70;45.00
19174;DHT22;9719;49.322;8.536;2023-06-14T13:51:04;29.60;45.20
19174;DHT22;9719;49.322;8.536;2023-06-14T13:56:06;29.70;45.20
19174;DHT22;9719;49.322;8.536;2023-06-14T14:01:08;29.60;45.10
19174;DHT22;9719;49.322;8.536;2023-06-14T14:06:11;29.40;45.00
19174;DHT22;9719;49.322;8.536;2023-06-14T14:11:12;29.60;45.70
19174;DHT22;9719;49.322;8.536;2023-06-14T14:16:16;30.80;45.80
19174;DHT22;9719;49.322;8.536;2023-06-14T14:21:19;30.90;44.90
19174;DHT22;9719;49.322;8.536;2023-06-14T14:26:21;30.50;44.70
19174;DHT22;9719;49.322;8.536;2023-06-14T14:31:23;30.30;44.90
19174;DHT22;9719;49.322;8.536;2023-06-14T14:36:27;30.00;45.10
19174;DHT22;9719;49.322;8.536;2023-06-14T14:41:28;30.00;45.20
19174;DHT22;9719;49.322;8.536;2023-06-14T14:46:30;30.30;45.50
19174;DHT22;9719;49.322;8.536;2023-06-14T14:51:33;30.80;45.50
19174;DHT22;9719;49.322;8.536;2023-06-14T14:56:34;30.90;44.60
19174;DHT22;9719;49.322;8.536;2023-06-14T15:01:38;30.40;44.20
19174;DHT22;9719;49.322;8.536;2023-06-14T15:06:41;30.10;44.60
19174;DHT22;9719;49.322;8.536;2023-06-14T15:11:43;30.10;45.00
19174;DHT22;9719;49.322;8.536;2023-06-14T15:16:45;30.00;44.80
19174;DHT22;9719;49.322;8.536;2023-06-14T15:21:48;29.70;44.80
19174;DHT22;9719;49.322;8.536;2023-06-14T15:26:50;29.10;44.80
19174;DHT22;9719;49.322;8.536;2023-06-14T15:31:51;28.60;45.00
19174;DHT22;9719;49.322;8.536;2023-06-14T15:36:56;28.80;45.80
19174;DHT22;9719;49.322;8.536;2023-06-14T15:41:58;28.80;46.00
19174;DHT22;9719;49.322;8.536;2023-06-14T15:47:00;29.10;45.90
19174;DHT22;9719;49.322;8.536;2023-06-14T15:52:03;29.40;46.00
19174;DHT22;9719;49.322;8.536;2023-06-14T15:57:05;29.50;45.60
19174;DHT22;9719;49.322;8.536;2023-06-14T16:02:07;29.70;45.90
19174;DHT22;9719;49.322;8.536;2023-06-14T16:07:10;29.90;45.50
19174;DHT22;9719;49.322;8.536;2023-06-14T16:12:13;29.90;45.00
19174;DHT22;9719;49.322;8.536;2023-06-14T16:17:15;29.70;45.00
19174;DHT22;9719;49.322;8.536;2023-06-14T16:22:18;29.50;44.60
19174;DHT22;9719;49.322;8.536;2023-06-14T16:27:19;29.50;44.80
19174;DHT22;9719;49.322;8.536;2023-06-14T16:32:21;29.20;44.90
19174;DHT22;9719;49.322;8.536;2023-06-14T16:37:24;28.90;44.70
19174;DHT22;9719;49.322;8.536;2023-06-14T16:42:26;28.50;45.40
19174;DHT22;9719;49.322;8.536;2023-06-14T16:47:27;28.10;45.90
19174;DHT22;9719;49.322;8.536;2023-06-14T16:52:30;27.80;46.20
19174;DHT22;9719;49.322;8.536;2023-06-14T16:57:32;27.60;46.70
19174;DHT22;9719;49.322;8.536;2023-06-14T17:02:34;27.50;47.10
19174;DHT22;9719;49.322;8.536;2023-06-14T17:07:37;27.40;47.40
19174;DHT22;9719;49.322;8.536;2023-06-14T17:12:39;27.30;47.60
19174;DHT22;9719;49.322;8.536;2023-06-14T17:17:41;27.00;47.90
19174;DHT22;9719;49.322;8.536;2023-06-14T17:22:44;26.80;48.20
19174;DHT22;9719;49.322;8.536;2023-06-14T17:27:45;26.70;48.40
19174;DHT22;9719;49.322;8.536;2023-06-14T17:32:47;26.60;48.70
19174;DHT22;9719;49.322;8.536;2023-06-14T17:37:50;26.40;49.00
19174;DHT22;9719;49.322;8.536;2023-06-14T17:42:52;26.20;49.20
19174;DHT22;9719;49.322;8.536;2023-06-14T17:47:54;26.60;49.30
19174;DHT22;9719;49.322;8.536;2023-06-14T17:52:57;26.70;48.80
19174;DHT22;9719;49.322;8.536;2023-06-14T18:03:02;26.10;49.70
19174;DHT22;9719;49.322;8.536;2023-06-14T18:08:05;26.00;50.00
19174;DHT22;9719;49.322;8.536;2023-06-14T18:13:07;26.00;50.20
19174;DHT22;9719;49.322;8.536;2023-06-14T18:18:09;26.00;50.10
19174;DHT22;9719;49.322;8.536;2023-06-14T18:23:12;26.00;50.20
19174;DHT22;9719;49.322;8.536;2023-06-14T18:28:13;26.00;50.10
19174;DHT22;9719;49.322;8.536;2023-06-14T18:33:15;26.00;50.20
19174;DHT22;9719;49.322;8.536;2023-06-14T18:38:18;26.10;50.40
19174;DHT22;9719;49.322;8.536;2023-06-14T18:43:20;26.00;50.30
19174;DHT22;9719;49.322;8.536;2023-06-14T18:48:21;26.00;50.40
19174;DHT22;9719;49.322;8.536;2023-06-14T18:53:24;26.00;50.30
19174;DHT22;9719;49.322;8.536;2023-06-14T18:58:27;25.90;50.40
19174;DHT22;9719;49.322;8.536;2023-06-14T19:03:29;25.70;50.40
19174;DHT22;9719;49.322;8.536;2023-06-14T19:08:32;25.60;50.60
19174;DHT22;9719;49.322;8.536;2023-06-14T19:13:33;25.40;50.70
19174;DHT22;9719;49.322;8.536;2023-06-14T19:18:35;25.30;50.80
19174;DHT22;9719;49.322;8.536;2023-06-14T19:23:38;25.10;51.00
19174;DHT22;9719;49.322;8.536;2023-06-14T19:28:40;25.00;51.10
19174;DHT22;9719;49.322;8.536;2023-06-14T19:33:42;24.80;51.30
19174;DHT22;9719;49.322;8.536;2023-06-14T19:38:45;24.80;51.50
19174;DHT22;9719;49.322;8.536;2023-06-14T19:43:46;24.60;51.70
19174;DHT22;9719;49.322;8.536;2023-06-14T19:48:48;24.40;51.90
19174;DHT22;9719;49.322;8.536;2023-06-14T19:53:52;24.30;52.10
19174;DHT22;9719;49.322;8.536;2023-06-14T19:58:54;24.20;52.30
19174;DHT22;9719;49.322;8.536;2023-06-14T20:03:55;24.10;52.60
19174;DHT22;9719;49.322;8.536;2023-06-14T20:08:58;24.00;52.80
19174;DHT22;9719;49.322;8.536;2023-06-14T20:14:00;23.90;53.00
19174;DHT22;9719;49.322;8.536;2023-06-14T20:19:02;23.80;53.30
19174;DHT22;9719;49.322;8.536;2023-06-14T20:24:05;23.80;53.60
19174;DHT22;9719;49.322;8.536;2023-06-14T20:29:07;23.70;53.90
19174;DHT22;9719;49.322;8.536;2023-06-14T20:34:08;23.60;54.10
19174;DHT22;9719;49.322;8.536;2023-06-14T20:39:11;23.60;54.30
19174;DHT22;9719;49.322;8.536;2023-06-14T20:44:13;23.50;54.50
19174;DHT22;9719;49.322;8.536;2023-06-14T20:49:16;23.40;54.70
19174;DHT22;9719;49.322;8.536;2023-06-14T20:54:20;23.30;55.00
19174;DHT22;9719;49.322;8.536;2023-06-14T20:59:22;23.20;55.30
19174;DHT22;9719;49.322;8.536;2023-06-14T21:04:23;23.10;55.60
19174;DHT22;9719;49.322;8.536;2023-06-14T21:09:27;23.00;55.90
19174;DHT22;9719;49.322;8.536;2023-06-14T21:14:28;22.90;56.30
19174;DHT22;9719;49.322;8.536;2023-06-14T21:19:30;22.80;56.40
19174;DHT22;9719;49.322;8.536;2023-06-14T21:24:33;22.70;56.60
19174;DHT22;9719;49.322;8.536;2023-06-14T21:29:35;22.60;56.80
19174;DHT22;9719;49.322;8.536;2023-06-14T21:34:37;22.50;57.10
19174;DHT22;9719;49.322;8.536;2023-06-14T21:39:42;22.40;57.30
19174;DHT22;9719;49.322;8.536;2023-06-14T21:44:43;22.30;57.60
19174;DHT22;9719;49.322;8.536;2023-06-14T21:49:46;22.20;57.70
19174;DHT22;9719;49.322;8.536;2023-06-14T21:54:54;22.10;58.20
19174;DHT22;9719;49.322;8.536;2023-06-14T21:59:56;22.00;58.60
19174;DHT22;9719;49.322;8.536;2023-06-14T22:04:58;21.80;58.90
19174;DHT22;9719;49.322;8.536;2023-06-14T22:10:01;21.60;59.20
19174;DHT22;9719;49.322;8.536;2023-06-14T22:15:04;21.50;59.70
19174;DHT22;9719;49.322;8.536;2023-06-14T22:20:08;21.40;60.00
19174;DHT22;9719;49.322;8.536;2023-06-14T22:25:12;21.30;60.40
19174;DHT22;9719;49.322;8.536;2023-06-14T22:30:14;21.20;60.80
19174;DHT22;9719;49.322;8.536;2023-06-14T22:35:16;21.20;61.00
19174;DHT22;9719;49.322;8.536;2023-06-14T22:40:20;21.10;61.50
19174;DHT22;9719;49.322;8.536;2023-06-14T22:45:21;21.10;62.20
19174;DHT22;9719;49.322;8.536;2023-06-14T22:50:24;21.10;61.70
19174;DHT22;9719;49.322;8.536;2023-06-14T22:55:27;21.10;62.70
19174;DHT22;9719;49.322;8.536;2023-06-14T23:00:28;21.00;61.90
19174;DHT22;9719;49.322;8.536;2023-06-14T23:05:31;21.00;61.90
19174;DHT22;9719;49.322;8.536;2023-06-14T23:10:34;21.10;61.60
19174;DHT22;9719;49.322;8.536;2023-06-14T23:15:37;21.20;61.70
19174;DHT22;9719;49.322;8.536;2023-06-14T23:20:39;21.30;61.60
19174;DHT22;9719;49.322;8.536;2023-06-14T23:25:41;21.40;61.50
19174;DHT22;9719;49.322;8.536;2023-06-14T23:30:43;21.50;61.30
19174;DHT22;9719;49.322;8.536;2023-06-14T23:35:45;21.60;61.20
19174;DHT22;9719;49.322;8.536;2023-06-14T23:40:48;21.70;61.10
19174;DHT22;9719;49.322;8.536;2023-06-14T23:45:51;21.70;61.40
19174;DHT22;9719;49.322;8.536;2023-06-14T23:50:56;21.70;61.30
19174;DHT22;9719;49.322;8.536;2023-06-14T23:55:59;21.70;61.40
